sensor_id;sensor_type;location;lat;lon;timestamp;temperature;humidity
6496;DHT22;3281;47.658;9.166;2022-11-30T00:01:10;7.80;35.10
6496;DHT22;3281;47.658;9.166;2022-11-30T00:03:37;7.80;35.60
6496;DHT22;3281;47.658;9.166;2022-11-30T00:06:05;7.90;36.00
6496;DHT22;3281;47.658;9.166;2022-11-30T00:08:32;7.90;36.00
6496;DHT22;3281;47.658;9.166;2022-11-30T00:10:59;7.80;35.80
6496;DHT22;3281;47.658;9.166;2022-11-30T00:13:27;7.90;37.40
6496;DHT22;3281;47.658;9.166;2022-11-30T00:15:59;7.90;35.20
6496;DHT22;3281;47.658;9.166;2022-11-30T00:18:26;7.90;34.80
6496;DHT22;3281;47.658;9.166;2022-11-30T00:20:52;7.90;34.20
6496;DHT22;3281;47.658;9.166;2022-11-30T00:23:19;8.00;34.00
6496;DHT22;3281;47.658;9.166;2022-11-30T00:25:46;7.80;30.20
6496;DHT22;3281;47.658;9.166;2022-11-30T00:28:13;7.80;33.00
6496;DHT22;3281;47.658;9.166;2022-11-30T00:30:41;7.80;35.40
6496;DHT22;3281;47.658;9.166;2022-11-30T00:33:08;7.80;34.40
6496;DHT22;3281;47.658;9.166;2022-11-30T00:35:34;7.80;32.50
6496;DHT22;3281;47.658;9.166;2022-11-30T00:38:01;7.80;30.60
6496;DHT22;3281;47.658;9.166;2022-11-30T00:40:28;7.80;31.40
6496;DHT22;3281;47.658;9.166;2022-11-30T00:42:55;7.70;30.50
6496;DHT22;3281;47.658;9.166;2022-11-30T00:45:21;7.80;33.90
6496;DHT22;3281;47.658;9.166;2022-11-30T00:47:49;7.80;30.90
6496;DHT22;3281;47.658;9.166;2022-11-30T00:50:16;7.80;30.00
6496;DHT22;3281;47.658;9.166;2022-11-30T00:52:43;7.80;29.80
6496;DHT22;3281;47.658;9.166;2022-11-30T00:55:10;7.80;30.00
6496;DHT22;3281;47.658;9.166;2022-11-30T00:57:36;7.80;29.70
6496;DHT22;3281;47.658;9.166;2022-11-30T01:00:04;7.70;28.40
6496;DHT22;3281;47.658;9.166;2022-11-30T01:02:31;7.70;30.40
6496;DHT22;3281;47.658;9.166;2022-11-30T01:04:59;7.70;31.80
6496;DHT22;3281;47.658;9.166;2022-11-30T01:07:25;7.80;33.20
6496;DHT22;3281;47.658;9.166;2022-11-30T01:09:52;7.70;31.20
6496;DHT22;3281;47.658;9.166;2022-11-30T01:12:19;7.70;32.80
6496;DHT22;3281;47.658;9.166;2022-11-30T01:14:46;7.80;31.20
6496;DHT22;3281;47.658;9.166;2022-11-30T01:17:12;7.70;29.90
6496;DHT22;3281;47.658;9.166;2022-11-30T01:19:39;7.80;32.50
6496;DHT22;3281;47.658;9.166;2022-11-30T01:22:07;7.80;31.10
6496;DHT22;3281;47.658;9.166;2022-11-30T01:24:34;7.70;30.30
6496;DHT22;3281;47.658;9.166;2022-11-30T01:27:01;7.70;32.70
6496;DHT22;3281;47.658;9.166;2022-11-30T01:29:27;7.70;33.30
6496;DHT22;3281;47.658;9.166;2022-11-30T01:31:54;7.60;31.50
6496;DHT22;3281;47.658;9.166;2022-11-30T01:34:21;7.50;32.60
6496;DHT22;3281;47.658;9.166;2022-11-30T01:36:47;7.50;32.20
6496;DHT22;3281;47.658;9.166;2022-11-30T01:39:16;7.60;31.40
6496;DHT22;3281;47.658;9.166;2022-11-30T01:41:42;7.60;33.40
6496;DHT22;3281;47.658;9.166;2022-11-30T01:44:48;7.50;32.20
6496;DHT22;3281;47.658;9.166;2022-11-30T01:47:15;7.50;32.50
6496;DHT22;3281;47.658;9.166;2022-11-30T01:49:46;7.50;32.70
6496;DHT22;3281;47.658;9.166;2022-11-30T01:52:16;7.50;35.60
6496;DHT22;3281;47.658;9.166;2022-11-30T01:54:49;7.60;35.70
6496;DHT22;3281;47.658;9.166;2022-11-30T01:57:21;7.50;33.90
6496;DHT22;3281;47.658;9.166;2022-11-30T01:59:52;7.60;34.50
6496;DHT22;3281;47.658;9.166;2022-11-30T02:02:27;7.60;31.40
6496;DHT22;3281;47.658;9.166;2022-11-30T02:04:56;7.50;30.00
6496;DHT22;3281;47.658;9.166;2022-11-30T02:07:23;7.50;31.50
6496;DHT22;3281;47.658;9.166;2022-11-30T02:09:51;7.50;33.40
6496;DHT22;3281;47.658;9.166;2022-11-30T02:12:23;7.50;32.00
6496;DHT22;3281;47.658;9.166;2022-11-30T02:14:54;7.60;33.10
6496;DHT22;3281;47.658;9.166;2022-11-30T02:17:27;7.60;34.60
6496;DHT22;3281;47.658;9.166;2022-11-30T02:20:20;7.70;34.20
6496;DHT22;3281;47.658;9.166;2022-11-30T02:23:16;7.70;33.50
6496;DHT22;3281;47.658;9.166;2022-11-30T02:25:54;7.70;29.80
6496;DHT22;3281;47.658;9.166;2022-11-30T02:29:01;7.70;32.30
6496;DHT22;3281;47.658;9.166;2022-11-30T02:31:35;7.70;29.90
6496;DHT22;3281;47.658;9.166;2022-11-30T02:34:05;7.80;30.50
6496;DHT22;3281;47.658;9.166;2022-11-30T02:36:34;7.80;30.00
6496;DHT22;3281;47.658;9.166;2022-11-30T02:39:02;7.80;30.20
6496;DHT22;3281;47.658;9.166;2022-11-30T02:41:35;7.80;30.40
6496;DHT22;3281;47.658;9.166;2022-11-30T02:44:03;7.70;31.20
6496;DHT22;3281;47.658;9.166;2022-11-30T02:46:36;7.70;31.90
6496;DHT22;3281;47.658;9.166;2022-11-30T02:49:12;7.60;30.80
6496;DHT22;3281;47.658;9.166;2022-11-30T02:51:43;7.60;29.30
6496;DHT22;3281;47.658;9.166;2022-11-30T02:54:11;7.60;30.60
6496;DHT22;3281;47.658;9.166;2022-11-30T02:56:38;7.60;29.30
6496;DHT22;3281;47.658;9.166;2022-11-30T02:59:06;7.60;31.20
6496;DHT22;3281;47.658;9.166;2022-11-30T03:01:33;7.80;31.70
6496;DHT22;3281;47.658;9.166;2022-11-30T03:04:00;7.70;29.20
6496;DHT22;3281;47.658;9.166;2022-11-30T03:06:26;7.70;29.80
6496;DHT22;3281;47.658;9.166;2022-11-30T03:08:53;7.70;32.90
6496;DHT22;3281;47.658;9.166;2022-11-30T03:11:20;7.60;31.50
6496;DHT22;3281;47.658;9.166;2022-11-30T03:13:47;7.60;34.40
6496;DHT22;3281;47.658;9.166;2022-11-30T03:16:15;7.50;31.00
6496;DHT22;3281;47.658;9.166;2022-11-30T03:18:41;7.50;35.50
6496;DHT22;3281;47.658;9.166;2022-11-30T03:21:10;7.50;31.20
6496;DHT22;3281;47.658;9.166;2022-11-30T03:23:38;7.60;35.70
6496;DHT22;3281;47.658;9.166;2022-11-30T03:26:05;7.70;36.00
6496;DHT22;3281;47.658;9.166;2022-11-30T03:28:33;7.70;35.80
6496;DHT22;3281;47.658;9.166;2022-11-30T03:31:00;7.80;35.80
6496;DHT22;3281;47.658;9.166;2022-11-30T03:33:28;7.80;35.80
6496;DHT22;3281;47.658;9.166;2022-11-30T03:35:59;7.80;35.60
6496;DHT22;3281;47.658;9.166;2022-11-30T03:38:26;7.90;36.00
6496;DHT22;3281;47.658;9.166;2022-11-30T03:40:59;7.90;34.70
6496;DHT22;3281;47.658;9.166;2022-11-30T03:43:26;7.80;34.60
6496;DHT22;3281;47.658;9.166;2022-11-30T03:45:53;7.90;32.50
6496;DHT22;3281;47.658;9.166;2022-11-30T03:48:20;7.90;31.10
6496;DHT22;3281;47.658;9.166;2022-11-30T03:50:48;7.90;29.70
6496;DHT22;3281;47.658;9.166;2022-11-30T03:53:15;7.90;28.10
6496;DHT22;3281;47.658;9.166;2022-11-30T03:55:42;8.00;26.20
6496;DHT22;3281;47.658;9.166;2022-11-30T03:58:09;7.90;26.20
6496;DHT22;3281;47.658;9.166;2022-11-30T04:00:36;8.00;28.40
6496;DHT22;3281;47.658;9.166;2022-11-30T04:03:03;7.90;24.30
6496;DHT22;3281;47.658;9.166;2022-11-30T04:05:30;7.90;26.10
6496;DHT22;3281;47.658;9.166;2022-11-30T04:07:58;7.90;22.60
6496;DHT22;3281;47.658;9.166;2022-11-30T04:10:25;7.90;23.70
6496;DHT22;3281;47.658;9.166;2022-11-30T04:12:52;7.90;26.10
6496;DHT22;3281;47.658;9.166;2022-11-30T04:15:18;7.90;25.10
6496;DHT22;3281;47.658;9.166;2022-11-30T04:17:45;7.90;24.70
6496;DHT22;3281;47.658;9.166;2022-11-30T04:20:12;7.90;24.20
6496;DHT22;3281;47.658;9.166;2022-11-30T04:22:39;7.90;26.30
6496;DHT22;3281;47.658;9.166;2022-11-30T04:25:08;7.80;25.80
6496;DHT22;3281;47.658;9.166;2022-11-30T04:27:34;7.90;23.10
6496;DHT22;3281;47.658;9.166;2022-11-30T04:30:01;7.90;22.90
6496;DHT22;3281;47.658;9.166;2022-11-30T04:32:28;7.90;20.40
6496;DHT22;3281;47.658;9.166;2022-11-30T04:34:55;7.90;22.20
6496;DHT22;3281;47.658;9.166;2022-11-30T04:37:21;7.90;20.30
6496;DHT22;3281;47.658;9.166;2022-11-30T04:39:48;7.80;19.20
6496;DHT22;3281;47.658;9.166;2022-11-30T04:42:16;7.70;20.90
6496;DHT22;3281;47.658;9.166;2022-11-30T04:44:43;7.70;25.20
6496;DHT22;3281;47.658;9.166;2022-11-30T04:47:10;7.70;26.00
6496;DHT22;3281;47.658;9.166;2022-11-30T04:49:36;7.80;22.30
6496;DHT22;3281;47.658;9.166;2022-11-30T04:52:03;7.70;20.20
6496;DHT22;3281;47.658;9.166;2022-11-30T04:54:30;7.80;22.90
6496;DHT22;3281;47.658;9.166;2022-11-30T04:56:56;7.70;23.20
6496;DHT22;3281;47.658;9.166;2022-11-30T04:59:24;7.70;22.90
6496;DHT22;3281;47.658;9.166;2022-11-30T05:01:51;7.70;19.50
6496;DHT22;3281;47.658;9.166;2022-11-30T05:04:18;7.80;17.40
6496;DHT22;3281;47.658;9.166;2022-11-30T05:06:45;7.80;17.20
6496;DHT22;3281;47.658;9.166;2022-11-30T05:09:12;7.70;12.60
6496;DHT22;3281;47.658;9.166;2022-11-30T05:11:39;7.70;15.80
6496;DHT22;3281;47.658;9.166;2022-11-30T05:14:05;7.70;13.60
6496;DHT22;3281;47.658;9.166;2022-11-30T05:16:33;7.70;16.90
6496;DHT22;3281;47.658;9.166;2022-11-30T05:19:00;7.80;12.70
6496;DHT22;3281;47.658;9.166;2022-11-30T05:21:27;7.80;11.90
6496;DHT22;3281;47.658;9.166;2022-11-30T05:23:54;7.80;18.80
6496;DHT22;3281;47.658;9.166;2022-11-30T05:26:21;7.80;9.70
6496;DHT22;3281;47.658;9.166;2022-11-30T05:28:47;7.80;16.60
6496;DHT22;3281;47.658;9.166;2022-11-30T05:31:14;7.70;18.60
6496;DHT22;3281;47.658;9.166;2022-11-30T05:33:42;7.70;15.30
6496;DHT22;3281;47.658;9.166;2022-11-30T05:36:09;7.70;12.60
6496;DHT22;3281;47.658;9.166;2022-11-30T05:38:36;7.70;10.50
6496;DHT22;3281;47.658;9.166;2022-11-30T05:41:03;7.70;16.00
6496;DHT22;3281;47.658;9.166;2022-11-30T05:43:29;7.70;13.10
6496;DHT22;3281;47.658;9.166;2022-11-30T05:45:58;7.70;11.70
6496;DHT22;3281;47.658;9.166;2022-11-30T05:48:26;7.70;10.40
6496;DHT22;3281;47.658;9.166;2022-11-30T05:50:54;7.70;13.20
6496;DHT22;3281;47.658;9.166;2022-11-30T05:53:21;7.60;11.90
6496;DHT22;3281;47.658;9.166;2022-11-30T05:55:48;7.60;12.80
6496;DHT22;3281;47.658;9.166;2022-11-30T05:58:15;7.70;11.30
6496;DHT22;3281;47.658;9.166;2022-11-30T06:00:42;7.70;8.00
6496;DHT22;3281;47.658;9.166;2022-11-30T06:03:09;7.80;6.20
6496;DHT22;3281;47.658;9.166;2022-11-30T06:05:35;7.70;8.00
6496;DHT22;3281;47.658;9.166;2022-11-30T06:08:04;7.70;4.80
6496;DHT22;3281;47.658;9.166;2022-11-30T06:10:30;7.60;6.00
6496;DHT22;3281;47.658;9.166;2022-11-30T06:12:57;7.60;7.80
6496;DHT22;3281;47.658;9.166;2022-11-30T06:15:24;7.50;1.30
6496;DHT22;3281;47.658;9.166;2022-11-30T06:17:50;7.60;7.90
6496;DHT22;3281;47.658;9.166;2022-11-30T06:20:20;7.60;2.60
6496;DHT22;3281;47.658;9.166;2022-11-30T06:22:47;7.60;1.70
6496;DHT22;3281;47.658;9.166;2022-11-30T06:25:15;7.50;1.00
6496;DHT22;3281;47.658;9.166;2022-11-30T06:27:41;7.70;1.00
6496;DHT22;3281;47.658;9.166;2022-11-30T06:30:10;7.60;1.00
6496;DHT22;3281;47.658;9.166;2022-11-30T06:32:37;7.50;1.00
6496;DHT22;3281;47.658;9.166;2022-11-30T06:35:04;7.50;1.00
6496;DHT22;3281;47.658;9.166;2022-11-30T06:37:32;7.40;1.00
6496;DHT22;3281;47.658;9.166;2022-11-30T06:39:59;7.50;1.00
6496;DHT22;3281;47.658;9.166;2022-11-30T06:42:29;7.40;1.00
6496;DHT22;3281;47.658;9.166;2022-11-30T06:44:55;7.50;1.00
6496;DHT22;3281;47.658;9.166;2022-11-30T06:47:22;7.50;1.00
6496;DHT22;3281;47.658;9.166;2022-11-30T06:49:49;7.50;1.00
6496;DHT22;3281;47.658;9.166;2022-11-30T06:52:16;7.50;1.00
6496;DHT22;3281;47.658;9.166;2022-11-30T06:54:43;7.50;1.00
6496;DHT22;3281;47.658;9.166;2022-11-30T06:57:10;7.50;1.00
6496;DHT22;3281;47.658;9.166;2022-11-30T06:59:39;7.50;1.10
6496;DHT22;3281;47.658;9.166;2022-11-30T07:02:09;7.40;1.00
6496;DHT22;3281;47.658;9.166;2022-11-30T07:04:36;7.50;1.00
6496;DHT22;3281;47.658;9.166;2022-11-30T07:07:03;7.50;1.00
6496;DHT22;3281;47.658;9.166;2022-11-30T07:09:30;7.50;1.00
6496;DHT22;3281;47.658;9.166;2022-11-30T07:11:57;7.60;1.00
6496;DHT22;3281;47.658;9.166;2022-11-30T07:14:23;7.50;1.00
6496;DHT22;3281;47.658;9.166;2022-11-30T07:16:51;7.50;1.00
6496;DHT22;3281;47.658;9.166;2022-11-30T07:19:18;7.50;1.00
6496;DHT22;3281;47.658;9.166;2022-11-30T07:21:45;7.50;1.00
6496;DHT22;3281;47.658;9.166;2022-11-30T07:24:12;7.60;1.00
6496;DHT22;3281;47.658;9.166;2022-11-30T07:26:58;7.60;1.00
6496;DHT22;3281;47.658;9.166;2022-11-30T07:29:25;7.60;1.00
6496;DHT22;3281;47.658;9.166;2022-11-30T07:31:54;7.60;1.00
6496;DHT22;3281;47.658;9.166;2022-11-30T07:34:21;7.60;1.00
6496;DHT22;3281;47.658;9.166;2022-11-30T07:36:48;7.60;1.00
6496;DHT22;3281;47.658;9.166;2022-11-30T07:39:14;7.60;1.00
6496;DHT22;3281;47.658;9.166;2022-11-30T07:41:42;7.60;1.00
6496;DHT22;3281;47.658;9.166;2022-11-30T07:44:10;7.60;1.00
6496;DHT22;3281;47.658;9.166;2022-11-30T07:46:37;7.70;1.00
6496;DHT22;3281;47.658;9.166;2022-11-30T07:49:07;7.60;1.00
6496;DHT22;3281;47.658;9.166;2022-11-30T07:51:35;7.60;1.00
6496;DHT22;3281;47.658;9.166;2022-11-30T07:54:03;7.70;1.00
6496;DHT22;3281;47.658;9.166;2022-11-30T07:56:30;7.70;1.00
6496;DHT22;3281;47.658;9.166;2022-11-30T07:58:58;7.60;1.00
6496;DHT22;3281;47.658;9.166;2022-11-30T08:01:27;7.60;1.00
6496;DHT22;3281;47.658;9.166;2022-11-30T08:03:55;7.60;1.00
6496;DHT22;3281;47.658;9.166;2022-11-30T08:06:25;7.60;1.00
6496;DHT22;3281;47.658;9.166;2022-11-30T08:08:55;7.60;1.00
6496;DHT22;3281;47.658;9.166;2022-11-30T08:11:24;7.60;1.00
6496;DHT22;3281;47.658;9.166;2022-11-30T08:13:52;7.60;1.00
6496;DHT22;3281;47.658;9.166;2022-11-30T08:16:21;7.60;1.00
6496;DHT22;3281;47.658;9.166;2022-11-30T08:18:48;7.70;1.00
6496;DHT22;3281;47.658;9.166;2022-11-30T08:21:17;7.60;1.00
6496;DHT22;3281;47.658;9.166;2022-11-30T08:23:47;7.50;1.00
6496;DHT22;3281;47.658;9.166;2022-11-30T08:26:16;7.40;1.00
6496;DHT22;3281;47.658;9.166;2022-11-30T08:28:44;7.40;1.00
6496;DHT22;3281;47.658;9.166;2022-11-30T08:31:13;7.30;1.00
6496;DHT22;3281;47.658;9.166;2022-11-30T08:33:41;7.40;1.00
6496;DHT22;3281;47.658;9.166;2022-11-30T08:36:09;7.30;1.00
6496;DHT22;3281;47.658;9.166;2022-11-30T08:38:37;7.40;1.00
6496;DHT22;3281;47.658;9.166;2022-11-30T08:41:06;7.40;1.00
6496;DHT22;3281;47.658;9.166;2022-11-30T08:43:33;7.40;1.00
6496;DHT22;3281;47.658;9.166;2022-11-30T08:46:02;7.60;1.00
6496;DHT22;3281;47.658;9.166;2022-11-30T08:48:29;7.60;1.00
6496;DHT22;3281;47.658;9.166;2022-11-30T08:50:58;7.80;1.00
6496;DHT22;3281;47.658;9.166;2022-11-30T08:53:25;7.70;1.00
6496;DHT22;3281;47.658;9.166;2022-11-30T08:55:55;7.80;1.00
6496;DHT22;3281;47.658;9.166;2022-11-30T08:58:24;7.80;1.00
6496;DHT22;3281;47.658;9.166;2022-11-30T09:00:50;7.80;1.00
6496;DHT22;3281;47.658;9.166;2022-11-30T09:03:17;7.80;1.00
6496;DHT22;3281;47.658;9.166;2022-11-30T09:05:44;7.80;1.00
6496;DHT22;3281;47.658;9.166;2022-11-30T09:08:11;7.80;1.00
6496;DHT22;3281;47.658;9.166;2022-11-30T09:10:38;7.80;1.00
6496;DHT22;3281;47.658;9.166;2022-11-30T09:13:04;7.90;1.00
6496;DHT22;3281;47.658;9.166;2022-11-30T09:15:32;7.80;1.00
6496;DHT22;3281;47.658;9.166;2022-11-30T09:17:59;7.80;1.00
6496;DHT22;3281;47.658;9.166;2022-11-30T09:20:26;7.80;1.00
6496;DHT22;3281;47.658;9.166;2022-11-30T09:22:53;7.90;1.00
6496;DHT22;3281;47.658;9.166;2022-11-30T09:25:20;7.90;1.00
6496;DHT22;3281;47.658;9.166;2022-11-30T09:27:46;7.90;1.00
6496;DHT22;3281;47.658;9.166;2022-11-30T09:30:13;8.00;1.00
6496;DHT22;3281;47.658;9.166;2022-11-30T09:32:41;8.00;1.00
6496;DHT22;3281;47.658;9.166;2022-11-30T09:35:08;8.10;1.00
6496;DHT22;3281;47.658;9.166;2022-11-30T09:37:35;8.10;1.00
6496;DHT22;3281;47.658;9.166;2022-11-30T09:40:04;8.10;1.00
6496;DHT22;3281;47.658;9.166;2022-11-30T09:42:45;8.10;1.00
6496;DHT22;3281;47.658;9.166;2022-11-30T09:45:18;8.10;1.00
6496;DHT22;3281;47.658;9.166;2022-11-30T09:48:04;8.20;1.00
6496;DHT22;3281;47.658;9.166;2022-11-30T09:50:36;8.20;1.00
6496;DHT22;3281;47.658;9.166;2022-11-30T09:53:09;8.30;1.00
6496;DHT22;3281;47.658;9.166;2022-11-30T09:55:40;8.30;1.00
6496;DHT22;3281;47.658;9.166;2022-11-30T09:58:14;8.50;1.00
6496;DHT22;3281;47.658;9.166;2022-11-30T10:00:43;8.40;1.00
6496;DHT22;3281;47.658;9.166;2022-11-30T10:03:12;8.40;1.00
6496;DHT22;3281;47.658;9.166;2022-11-30T10:05:44;8.40;1.00
6496;DHT22;3281;47.658;9.166;2022-11-30T10:08:26;8.40;1.00
6496;DHT22;3281;47.658;9.166;2022-11-30T10:11:14;8.50;1.00
6496;DHT22;3281;47.658;9.166;2022-11-30T10:13:55;8.40;1.00
6496;DHT22;3281;47.658;9.166;2022-11-30T10:16:33;8.30;1.00
6496;DHT22;3281;47.658;9.166;2022-11-30T10:19:14;8.30;1.00
6496;DHT22;3281;47.658;9.166;2022-11-30T10:21:56;8.30;1.00
6496;DHT22;3281;47.658;9.166;2022-11-30T10:24:39;8.30;1.00
6496;DHT22;3281;47.658;9.166;2022-11-30T10:27:17;8.20;1.00
6496;DHT22;3281;47.658;9.166;2022-11-30T10:29:47;8.20;1.00
6496;DHT22;3281;47.658;9.166;2022-11-30T10:32:18;8.30;1.00
6496;DHT22;3281;47.658;9.166;2022-11-30T10:34:50;8.30;1.00
6496;DHT22;3281;47.658;9.166;2022-11-30T10:37:21;8.40;1.00
6496;DHT22;3281;47.658;9.166;2022-11-30T10:39:58;8.30;1.00
6496;DHT22;3281;47.658;9.166;2022-11-30T10:42:30;8.30;1.00
6496;DHT22;3281;47.658;9.166;2022-11-30T10:45:02;8.20;1.00
6496;DHT22;3281;47.658;9.166;2022-11-30T10:47:32;8.20;1.00
6496;DHT22;3281;47.658;9.166;2022-11-30T10:50:03;8.20;1.00
6496;DHT22;3281;47.658;9.166;2022-11-30T10:52:44;8.10;1.00
6496;DHT22;3281;47.658;9.166;2022-11-30T10:55:13;8.20;1.00
6496;DHT22;3281;47.658;9.166;2022-11-30T10:57:42;8.10;1.00
6496;DHT22;3281;47.658;9.166;2022-11-30T11:00:11;8.20;1.00
6496;DHT22;3281;47.658;9.166;2022-11-30T11:02:41;8.10;1.00
6496;DHT22;3281;47.658;9.166;2022-11-30T11:05:20;8.10;1.00
6496;DHT22;3281;47.658;9.166;2022-11-30T11:07:56;8.00;1.00
6496;DHT22;3281;47.658;9.166;2022-11-30T11:10:28;7.90;1.00
6496;DHT22;3281;47.658;9.166;2022-11-30T11:12:56;8.00;1.00
6496;DHT22;3281;47.658;9.166;2022-11-30T11:15:25;7.90;1.00
6496;DHT22;3281;47.658;9.166;2022-11-30T11:17:53;7.90;1.00
6496;DHT22;3281;47.658;9.166;2022-11-30T11:20:30;7.80;1.00
6496;DHT22;3281;47.658;9.166;2022-11-30T11:22:57;7.80;1.00
6496;DHT22;3281;47.658;9.166;2022-11-30T11:25:29;7.90;1.00
6496;DHT22;3281;47.658;9.166;2022-11-30T11:28:04;7.90;1.00
6496;DHT22;3281;47.658;9.166;2022-11-30T11:30:34;7.90;1.00
6496;DHT22;3281;47.658;9.166;2022-11-30T11:33:06;7.90;1.00
6496;DHT22;3281;47.658;9.166;2022-11-30T11:35:46;7.90;1.00
6496;DHT22;3281;47.658;9.166;2022-11-30T11:38:22;7.90;1.00
6496;DHT22;3281;47.658;9.166;2022-11-30T11:40:54;7.90;1.00
6496;DHT22;3281;47.658;9.166;2022-11-30T11:43:23;7.90;1.00
6496;DHT22;3281;47.658;9.166;2022-11-30T11:45:52;7.90;1.00
6496;DHT22;3281;47.658;9.166;2022-11-30T11:48:35;7.90;1.00
6496;DHT22;3281;47.658;9.166;2022-11-30T11:51:06;8.00;1.00
6496;DHT22;3281;47.658;9.166;2022-11-30T11:53:42;7.90;1.00
6496;DHT22;3281;47.658;9.166;2022-11-30T11:56:15;7.90;1.00
6496;DHT22;3281;47.658;9.166;2022-11-30T11:58:46;7.90;1.00
6496;DHT22;3281;47.658;9.166;2022-11-30T12:01:20;8.00;1.00
6496;DHT22;3281;47.658;9.166;2022-11-30T12:03:57;8.00;1.00
6496;DHT22;3281;47.658;9.166;2022-11-30T12:06:28;8.00;1.00
6496;DHT22;3281;47.658;9.166;2022-11-30T12:09:01;8.00;1.00
6496;DHT22;3281;47.658;9.166;2022-11-30T12:11:36;8.00;1.00
6496;DHT22;3281;47.658;9.166;2022-11-30T12:14:10;8.00;1.00
6496;DHT22;3281;47.658;9.166;2022-11-30T12:16:48;8.10;1.00
6496;DHT22;3281;47.658;9.166;2022-11-30T12:19:20;8.00;1.00
6496;DHT22;3281;47.658;9.166;2022-11-30T12:21:59;8.00;1.00
6496;DHT22;3281;47.658;9.166;2022-11-30T12:24:44;8.00;1.00
6496;DHT22;3281;47.658;9.166;2022-11-30T12:27:28;8.00;1.00
6496;DHT22;3281;47.658;9.166;2022-11-30T12:30:02;7.90;1.00
6496;DHT22;3281;47.658;9.166;2022-11-30T12:32:47;8.00;1.00
6496;DHT22;3281;47.658;9.166;2022-11-30T12:35:28;7.80;1.00
6496;DHT22;3281;47.658;9.166;2022-11-30T12:38:06;7.70;1.00
6496;DHT22;3281;47.658;9.166;2022-11-30T12:40:42;7.70;1.00
6496;DHT22;3281;47.658;9.166;2022-11-30T12:43:20;7.70;1.00
6496;DHT22;3281;47.658;9.166;2022-11-30T12:45:51;7.70;1.00
6496;DHT22;3281;47.658;9.166;2022-11-30T12:48:28;7.80;1.00
6496;DHT22;3281;47.658;9.166;2022-11-30T12:51:08;7.90;1.00
6496;DHT22;3281;47.658;9.166;2022-11-30T12:53:44;7.90;1.00
6496;DHT22;3281;47.658;9.166;2022-11-30T12:56:25;7.80;1.00
6496;DHT22;3281;47.658;9.166;2022-11-30T12:58:59;7.70;1.00
6496;DHT22;3281;47.658;9.166;2022-11-30T13:01:39;7.70;1.00
6496;DHT22;3281;47.658;9.166;2022-11-30T13:04:17;7.70;1.00
6496;DHT22;3281;47.658;9.166;2022-11-30T13:06:48;7.70;1.00
6496;DHT22;3281;47.658;9.166;2022-11-30T13:09:23;7.60;1.00
6496;DHT22;3281;47.658;9.166;2022-11-30T13:11:56;7.60;1.00
6496;DHT22;3281;47.658;9.166;2022-11-30T13:14:26;7.60;1.00
6496;DHT22;3281;47.658;9.166;2022-11-30T13:16:59;7.60;1.00
6496;DHT22;3281;47.658;9.166;2022-11-30T13:19:46;7.40;1.00
6496;DHT22;3281;47.658;9.166;2022-11-30T13:22:21;7.30;1.00
6496;DHT22;3281;47.658;9.166;2022-11-30T13:24:56;7.40;1.00
6496;DHT22;3281;47.658;9.166;2022-11-30T13:27:29;7.30;1.00
6496;DHT22;3281;47.658;9.166;2022-11-30T13:30:08;7.40;1.00
6496;DHT22;3281;47.658;9.166;2022-11-30T13:32:38;7.40;1.00
6496;DHT22;3281;47.658;9.166;2022-11-30T13:35:38;7.30;1.00
6496;DHT22;3281;47.658;9.166;2022-11-30T13:38:17;7.40;1.00
6496;DHT22;3281;47.658;9.166;2022-11-30T13:40:59;7.30;1.00
6496;DHT22;3281;47.658;9.166;2022-11-30T13:43:27;7.40;1.00
6496;DHT22;3281;47.658;9.166;2022-11-30T13:46:03;7.30;1.00
6496;DHT22;3281;47.658;9.166;2022-11-30T13:48:33;7.10;1.00
6496;DHT22;3281;47.658;9.166;2022-11-30T13:51:02;7.20;1.00
6496;DHT22;3281;47.658;9.166;2022-11-30T13:53:32;7.20;1.00
6496;DHT22;3281;47.658;9.166;2022-11-30T13:56:33;7.10;1.00
6496;DHT22;3281;47.658;9.166;2022-11-30T13:59:30;7.20;1.00
6496;DHT22;3281;47.658;9.166;2022-11-30T14:05:21;7.10;1.00
6496;DHT22;3281;47.658;9.166;2022-11-30T14:13:57;7.10;1.00
6496;DHT22;3281;47.658;9.166;2022-11-30T14:16:44;7.00;1.00
6496;DHT22;3281;47.658;9.166;2022-11-30T14:19:11;7.00;1.00
6496;DHT22;3281;47.658;9.166;2022-11-30T14:21:42;7.00;1.00
6496;DHT22;3281;47.658;9.166;2022-11-30T14:24:15;6.90;1.00
6496;DHT22;3281;47.658;9.166;2022-11-30T14:26:45;6.80;1.00
6496;DHT22;3281;47.658;9.166;2022-11-30T14:29:17;6.80;1.00
6496;DHT22;3281;47.658;9.166;2022-11-30T14:31:51;6.80;1.00
6496;DHT22;3281;47.658;9.166;2022-11-30T14:34:23;7.00;1.00
6496;DHT22;3281;47.658;9.166;2022-11-30T14:36:54;6.90;1.00
6496;DHT22;3281;47.658;9.166;2022-11-30T14:39:27;6.90;1.00
6496;DHT22;3281;47.658;9.166;2022-11-30T14:41:56;6.80;1.00
6496;DHT22;3281;47.658;9.166;2022-11-30T14:44:25;6.90;1.00
6496;DHT22;3281;47.658;9.166;2022-11-30T14:46:52;6.90;1.00
6496;DHT22;3281;47.658;9.166;2022-11-30T14:49:19;6.80;1.00
6496;DHT22;3281;47.658;9.166;2022-11-30T14:51:49;6.80;1.00
6496;DHT22;3281;47.658;9.166;2022-11-30T14:54:31;6.80;1.00
6496;DHT22;3281;47.658;9.166;2022-11-30T14:57:07;6.70;1.00
6496;DHT22;3281;47.658;9.166;2022-11-30T14:59:45;6.80;1.00
6496;DHT22;3281;47.658;9.166;2022-11-30T15:02:27;6.60;1.00
6496;DHT22;3281;47.658;9.166;2022-11-30T15:04:55;6.60;1.00
6496;DHT22;3281;47.658;9.166;2022-11-30T15:07:23;6.60;1.00
6496;DHT22;3281;47.658;9.166;2022-11-30T15:09:51;6.70;1.00
6496;DHT22;3281;47.658;9.166;2022-11-30T15:12:23;6.60;1.00
6496;DHT22;3281;47.658;9.166;2022-11-30T15:15:09;6.70;1.00
6496;DHT22;3281;47.658;9.166;2022-11-30T15:17:52;6.60;1.00
6496;DHT22;3281;47.658;9.166;2022-11-30T15:20:30;6.60;1.00
6496;DHT22;3281;47.658;9.166;2022-11-30T15:22:57;6.60;1.00
6496;DHT22;3281;47.658;9.166;2022-11-30T15:25:29;6.60;1.00
6496;DHT22;3281;47.658;9.166;2022-11-30T15:27:59;6.60;1.00
6496;DHT22;3281;47.658;9.166;2022-11-30T15:30:27;6.50;1.00
6496;DHT22;3281;47.658;9.166;2022-11-30T15:32:55;6.50;1.00
6496;DHT22;3281;47.658;9.166;2022-11-30T15:35:24;6.50;1.00
6496;DHT22;3281;47.658;9.166;2022-11-30T15:37:52;6.50;1.00
6496;DHT22;3281;47.658;9.166;2022-11-30T15:40:29;6.50;1.00
6496;DHT22;3281;47.658;9.166;2022-11-30T15:42:57;6.50;1.00
6496;DHT22;3281;47.658;9.166;2022-11-30T15:45:28;7.00;1.00
6496;DHT22;3281;47.658;9.166;2022-11-30T15:47:56;6.50;1.00
6496;DHT22;3281;47.658;9.166;2022-11-30T15:50:38;6.50;1.00
6496;DHT22;3281;47.658;9.166;2022-11-30T15:53:27;6.50;1.00
6496;DHT22;3281;47.658;9.166;2022-11-30T15:55:58;6.50;1.00
6496;DHT22;3281;47.658;9.166;2022-11-30T15:58:30;6.40;1.00
6496;DHT22;3281;47.658;9.166;2022-11-30T16:01:07;6.50;1.00
6496;DHT22;3281;47.658;9.166;2022-11-30T16:03:57;6.50;1.00
6496;DHT22;3281;47.658;9.166;2022-11-30T16:06:25;6.50;1.00
6496;DHT22;3281;47.658;9.166;2022-11-30T16:08:53;6.50;1.00
6496;DHT22;3281;47.658;9.166;2022-11-30T16:11:20;6.60;1.00
6496;DHT22;3281;47.658;9.166;2022-11-30T16:13:47;6.50;1.00
6496;DHT22;3281;47.658;9.166;2022-11-30T16:16:18;6.60;1.00
6496;DHT22;3281;47.658;9.166;2022-11-30T16:18:46;6.60;1.00
6496;DHT22;3281;47.658;9.166;2022-11-30T16:21:16;6.70;1.00
6496;DHT22;3281;47.658;9.166;2022-11-30T16:23:43;6.70;1.00
6496;DHT22;3281;47.658;9.166;2022-11-30T16:26:11;6.70;1.00
6496;DHT22;3281;47.658;9.166;2022-11-30T16:28:38;6.60;1.00
6496;DHT22;3281;47.658;9.166;2022-11-30T16:31:05;6.70;1.00
6496;DHT22;3281;47.658;9.166;2022-11-30T16:33:34;6.70;1.00
6496;DHT22;3281;47.658;9.166;2022-11-30T16:36:02;6.70;1.00
6496;DHT22;3281;47.658;9.166;2022-11-30T16:38:30;6.70;1.00
6496;DHT22;3281;47.658;9.166;2022-11-30T16:41:11;6.70;1.00
6496;DHT22;3281;47.658;9.166;2022-11-30T16:43:38;6.70;1.00
6496;DHT22;3281;47.658;9.166;2022-11-30T16:46:08;6.70;1.00
6496;DHT22;3281;47.658;9.166;2022-11-30T16:48:36;6.70;1.00
6496;DHT22;3281;47.658;9.166;2022-11-30T16:51:03;6.60;1.00
6496;DHT22;3281;47.658;9.166;2022-11-30T16:53:30;6.70;1.00
6496;DHT22;3281;47.658;9.166;2022-11-30T16:55:57;6.70;1.00
6496;DHT22;3281;47.658;9.166;2022-11-30T16:58:24;6.80;1.00
6496;DHT22;3281;47.658;9.166;2022-11-30T17:00:51;6.70;1.00